Portada
METAR-TAF:

METAR-TAF

Aeroports :

Daşoguz, Turkmenistan

latitud: 41-45-53N, longitud: 059-49-59E, altitud: 83 m

Observació

L'informe es va fer fa 33 minuts, a les 01:00 UTC
Vent 6 kt del Nord/Nord-Est
Temperatura -5°C
Humitat 86%
Pressió 1038 hPa
Visibilitat 10 km o més
sense núvols per sota de 1500 mi sense presència de cumulonimbus.

METAR: UTAT 180100Z 03006KT CAVOK M05/M07 Q1038 R08/CLRD70 NOSIG

Hora: 06:33 (01:33 UTC)

Pronòstic

L'informe es va fer fa 3 hores i 1 minuts, a les 22:32 UTC
Pronòstic vàlid del 18 a les 00 UTC al 18 a les 24 UTC
Vent 12 kt del Nord-Est
Visibilitat: 5000 m
Núvols disperses a una alçada de 1000 ft
Cel ennuvolat a una alçada de 2000 ft
boirina
Temporalment
l' 18 a les 00 UTC al 18 a les 06 UTC
Vent 10 kt del Est
Visibilitat: 0700 m
a una alçada de 200 ft
boira gebradora

TAF: UTAT 172232Z 1800/1824 05012KT 5000 BR SCT010 BKN020 TEMPO 1800/1806 09010KT 0700 FZFG VV002

Observacions i pronòstics meteorològics de més de 4000 aeroports (METAR i TAF).

Les estacions disponibles són els punts grocs i vermells al mapa.

Posi el ratolí al punt desitjat per veure el nom de l'estació.

Feu clic per veure les observacions i els pronòstics meteorològics.

Per canviar el mapa: feu clic els botons verds amb una creu de color negre per apropar; al botó verd amb un guió per allunyar la imatge; o en les fletxes verdes per a mapes adjacents.


METAR-TAF: